createdAt,value
2022-10-12T00:02:11.168Z,102562.59
2022-10-12T00:07:35.818Z,102547.81
2022-10-12T00:13:00.156Z,102553.91
2022-10-12T00:18:23.259Z,102553.91
2022-10-12T00:23:48.227Z,102547.72
2022-10-12T00:29:11.573Z,102552.97
2022-10-12T00:34:34.647Z,102545.09
2022-10-12T00:39:59.077Z,102549.44
2022-10-12T00:45:22.263Z,102553.81
2022-10-12T00:50:45.251Z,102552.88
2022-10-12T00:56:12.677Z,102543.31
2022-10-12T01:01:36.850Z,102549.41
2022-10-12T01:07:00.326Z,102540.75
2022-10-12T01:12:24.798Z,102543.38
2022-10-12T01:17:55.111Z,102542.50
2022-10-12T01:23:44.358Z,102538.16
2022-10-12T01:29:20.906Z,102537.28
2022-10-12T01:34:48.222Z,102533.78
2022-10-12T01:40:15.689Z,102536.41
2022-10-12T01:45:38.857Z,102531.16
2022-10-12T01:51:03.850Z,102525.88
2022-10-12T01:56:30.214Z,102516.28
2022-10-12T02:01:57.031Z,102511.88
2022-10-12T02:07:26.393Z,102511.94
2022-10-12T02:12:50.840Z,102496.28
2022-10-12T02:18:17.087Z,102504.97
2022-10-12T02:23:42.210Z,102505.88
2022-10-12T02:29:08.694Z,102493.69
2022-10-12T02:34:34.912Z,102490.22
2022-10-12T02:40:04.659Z,102485.00
2022-10-12T02:45:29.108Z,102481.53
2022-10-12T02:50:55.469Z,102474.53
2022-10-12T02:56:19.885Z,102472.75
2022-10-12T03:01:43.210Z,102469.25
2022-10-12T03:07:06.293Z,102464.88
2022-10-12T03:12:31.773Z,102450.00
2022-10-12T03:17:54.853Z,102457.81
2022-10-12T03:23:17.859Z,102451.72
2022-10-12T03:28:42.401Z,102449.97
2022-10-12T03:34:05.522Z,102447.31
2022-10-12T03:39:28.535Z,102449.03
2022-10-12T03:44:52.984Z,102449.00
2022-10-12T03:50:16.249Z,102454.16
2022-10-12T03:55:39.299Z,102449.78
2022-10-12T04:01:04.195Z,102449.66
2022-10-12T04:06:27.311Z,102453.13
2022-10-12T04:11:50.308Z,102452.25
2022-10-12T04:17:15.862Z,102445.25
2022-10-12T04:22:39.096Z,102445.25
2022-10-12T04:28:02.164Z,102440.88
2022-10-12T04:33:26.631Z,102438.22
2022-10-12T04:38:49.675Z,102439.97
2022-10-12T04:44:12.834Z,102439.94
2022-10-12T04:49:37.272Z,102441.69
2022-10-12T04:55:00.326Z,102440.78
2022-10-12T05:00:23.387Z,102437.25
2022-10-12T05:05:47.794Z,102433.75
2022-10-12T05:11:10.876Z,102425.94
2022-10-12T05:16:33.896Z,102422.47
2022-10-12T05:21:58.428Z,102419.81
2022-10-12T05:27:21.490Z,102418.09
2022-10-12T05:32:44.791Z,102412.03
2022-10-12T05:38:09.226Z,102411.16
2022-10-12T05:43:32.568Z,102417.22
2022-10-12T05:48:55.679Z,102411.09
2022-10-12T05:54:20.098Z,102411.94
2022-10-12T05:59:43.271Z,102416.22
2022-10-12T06:05:07.210Z,102422.34
2022-10-12T06:10:32.168Z,102415.41
2022-10-12T06:15:55.498Z,102423.22
2022-10-12T06:21:33.111Z,102423.22
2022-10-12T06:26:58.319Z,102411.94
2022-10-12T06:32:21.377Z,102412.88
2022-10-12T06:37:50.623Z,102407.69
2022-10-12T06:43:15.272Z,102413.78
2022-10-12T06:48:38.295Z,102405.06
2022-10-12T06:54:01.360Z,102409.41
2022-10-12T06:59:25.796Z,102400.75
2022-10-12T07:04:51.009Z,102400.88
2022-10-12T07:10:14.100Z,102397.53
2022-10-12T07:15:38.526Z,102401.84
2022-10-12T07:21:02.817Z,102413.25
2022-10-12T07:26:26.104Z,102402.84
2022-10-12T07:31:52.031Z,102401.19
2022-10-12T07:37:15.394Z,102405.63
2022-10-12T07:42:53.699Z,102401.34
2022-10-12T07:48:23.589Z,102399.72
2022-10-12T07:53:46.731Z,102410.22
2022-10-12T07:59:09.906Z,102411.13
2022-10-12T08:04:34.390Z,102415.50
2022-10-12T08:09:57.787Z,102428.53
2022-10-12T08:15:20.962Z,102427.69
2022-10-12T08:20:45.375Z,102424.19
2022-10-12T08:26:09.104Z,102419.88
2022-10-12T08:31:32.328Z,102418.16
2022-10-12T08:36:56.805Z,102414.66
2022-10-12T08:42:33.199Z,102426.03
2022-10-12T08:48:00.511Z,102427.75
2022-10-12T08:53:27.761Z,102433.84
2022-10-12T08:58:51.867Z,102427.75
2022-10-12T09:04:28.462Z,102398.97
2022-10-12T09:10:04.443Z,102414.59
2022-10-12T09:15:30.005Z,102391.88
2022-10-12T09:20:54.230Z,102403.09
2022-10-12T09:26:20.249Z,102399.38
2022-10-12T09:31:55.580Z,102394.06
2022-10-12T09:37:22.754Z,102387.69
2022-10-12T09:42:47.396Z,102381.22
2022-10-12T09:48:12.871Z,102375.72
2022-10-12T09:53:38.330Z,102381.69
2022-10-12T09:59:05.584Z,102378.72
2022-10-12T10:04:31.108Z,102363.53
2022-10-12T10:10:16.067Z,102355.53
2022-10-12T10:15:40.790Z,102362.31
2022-10-12T10:21:05.325Z,102328.16
2022-10-12T10:26:29.971Z,102331.44
2022-10-12T10:32:11.820Z,102317.25
2022-10-12T10:37:35.202Z,102315.50
2022-10-12T10:43:04.069Z,102275.47
2022-10-12T10:48:31.355Z,102282.16
2022-10-12T10:53:54.386Z,102274.25
2022-10-12T10:59:21.387Z,102270.03
2022-10-12T11:04:49.643Z,102255.75
2022-10-12T11:10:21.732Z,102257.31
2022-10-12T11:15:47.845Z,102250.50
2022-10-12T11:21:14.232Z,102242.25
2022-10-12T11:26:39.897Z,102249.72
2022-10-12T11:32:05.086Z,102250.44
2022-10-12T11:37:36.702Z,102240.50
2022-10-12T11:43:01.809Z,102247.94
2022-10-12T11:48:29.133Z,102254.00
2022-10-12T11:53:59.506Z,102241.13
2022-10-12T11:59:30.873Z,102229.78
2022-10-12T12:04:54.699Z,102219.72
2022-10-12T12:11:04.250Z,102225.47
2022-10-12T12:16:34.784Z,102220.56
2022-10-12T12:22:16.773Z,102208.59
2022-10-12T12:27:41.599Z,102210.19
2022-10-12T12:33:19.443Z,102188.16
2022-10-12T12:38:48.650Z,102217.81
2022-10-12T12:44:37.588Z,102220.97
2022-10-12T12:50:02.217Z,102212.66
2022-10-12T12:55:38.421Z,102192.53
2022-10-12T13:01:17.277Z,102198.84
2022-10-12T13:06:57.230Z,102181.38
2022-10-12T13:12:30.790Z,102187.28
2022-10-12T13:18:18.296Z,102177.34
2022-10-12T13:23:48.393Z,102174.47
2022-10-12T13:29:18.008Z,102168.25
2022-10-12T13:34:44.906Z,102169.81
2022-10-12T13:40:29.195Z,102158.53
2022-10-12T13:45:52.216Z,102108.72
2022-10-12T13:51:27.821Z,102152.44
2022-10-12T13:56:54.020Z,102130.00
2022-10-12T14:02:19.220Z,102116.31
2022-10-12T14:07:44.454Z,102102.56
2022-10-12T14:13:09.422Z,102095.22
2022-10-12T14:18:37.600Z,102094.50
2022-10-12T14:24:09.862Z,102103.09
2022-10-12T14:29:41.698Z,102107.00
2022-10-12T14:35:12.403Z,102086.88
2022-10-12T14:40:39.726Z,102087.41
2022-10-12T14:46:02.752Z,102075.75
2022-10-12T14:51:25.831Z,102080.63
2022-10-12T14:56:50.337Z,102077.09
2022-10-12T15:02:16.877Z,102081.06
2022-10-12T15:07:40.063Z,102088.50
2022-10-12T15:13:04.555Z,102044.00
2022-10-12T15:18:27.611Z,102068.84
2022-10-12T15:23:50.732Z,102070.91
2022-10-12T15:29:15.235Z,102059.22
2022-10-12T15:34:38.413Z,102051.28
2022-10-12T15:40:01.481Z,102059.41
2022-10-12T15:45:27.386Z,102077.13
2022-10-12T15:50:51.042Z,102074.47
2022-10-12T15:56:15.652Z,102056.91
2022-10-12T16:01:40.338Z,102058.59
2022-10-12T16:07:03.398Z,102067.25
2022-10-12T16:12:26.475Z,102055.69
2022-10-12T16:17:51.036Z,102050.66
2022-10-12T16:23:16.280Z,102064.53
2022-10-12T16:28:39.417Z,102056.69
2022-10-12T16:34:03.959Z,102056.72
2022-10-12T16:39:28.191Z,102048.25
2022-10-12T16:44:51.304Z,102040.72
2022-10-12T16:50:15.752Z,102035.59
2022-10-12T16:55:39.893Z,102068.13
2022-10-12T17:01:09.355Z,102047.41
2022-10-12T17:06:33.899Z,102053.75
2022-10-12T17:11:56.917Z,102058.28
2022-10-12T17:17:20.361Z,102047.13
2022-10-12T17:22:44.693Z,102043.06
2022-10-12T17:28:07.857Z,102051.84
2022-10-12T17:33:30.923Z,102060.72
2022-10-12T17:38:57.270Z,102063.38
2022-10-12T17:44:20.693Z,102059.16
2022-10-12T17:49:43.733Z,102056.59
2022-10-12T17:55:24.309Z,102064.47
2022-10-12T18:00:52.632Z,102047.84
2022-10-12T18:06:18.435Z,102055.72
2022-10-12T18:11:44.251Z,102040.91
2022-10-12T18:17:07.242Z,102041.81
2022-10-12T18:22:30.462Z,102027.00
2022-10-12T18:27:54.916Z,102037.53
2022-10-12T18:33:18.420Z,102034.97
2022-10-12T18:38:41.503Z,102038.44
2022-10-12T18:44:05.929Z,102036.72
2022-10-12T18:49:29.026Z,102030.72
2022-10-12T18:54:51.977Z,102027.22
2022-10-12T19:00:16.638Z,102023.72
2022-10-12T19:05:39.756Z,102034.25
2022-10-12T19:11:05.592Z,102035.97
2022-10-12T19:16:30.709Z,102002.91
2022-10-12T19:21:54.811Z,102009.09
2022-10-12T19:27:17.825Z,102018.69
2022-10-12T19:32:42.931Z,102012.59
2022-10-12T19:38:06.111Z,102010.81
2022-10-12T19:43:29.288Z,101985.69
2022-10-12T19:48:54.877Z,101998.63
2022-10-12T19:54:18.061Z,101999.50
2022-10-12T19:59:41.102Z,101999.44
2022-10-12T20:05:06.139Z,101982.97
2022-10-12T20:10:29.276Z,101970.81
2022-10-12T20:15:53.145Z,101942.91
2022-10-12T20:21:19.940Z,101952.56
2022-10-12T20:26:43.560Z,101956.81
2022-10-12T20:32:06.653Z,101962.00
2022-10-12T20:37:32.410Z,101971.59
2022-10-12T20:42:55.621Z,101963.72
2022-10-12T20:48:18.651Z,101958.50
2022-10-12T20:53:43.099Z,101959.44
2022-10-12T20:59:06.222Z,101962.09
2022-10-12T21:04:34.724Z,101951.72
2022-10-12T21:10:01.976Z,101949.91
2022-10-12T21:15:24.947Z,101949.97
2022-10-12T21:20:55.608Z,101937.88
2022-10-12T21:26:21.972Z,101926.53
2022-10-12T21:31:45.031Z,101916.88
2022-10-12T21:37:08.106Z,101912.44
2022-10-12T21:42:32.476Z,101930.75
2022-10-12T21:47:55.589Z,101929.91
2022-10-12T21:53:18.589Z,101930.69
2022-10-12T21:58:43.297Z,101925.44
2022-10-12T22:04:07.973Z,101886.47
2022-10-12T22:09:31.052Z,101932.44
2022-10-12T22:14:55.462Z,101926.34
2022-10-12T22:20:19.794Z,101927.22
2022-10-12T22:25:48.588Z,101922.94
2022-10-12T22:31:14.995Z,101917.84
2022-10-12T22:36:38.022Z,101903.97
2022-10-12T22:42:02.664Z,101917.00
2022-10-12T22:47:27.037Z,101910.13
2022-10-12T22:52:52.395Z,101911.03
2022-10-12T22:58:15.937Z,101914.50
2022-10-12T23:03:40.639Z,101917.13
2022-10-12T23:09:07.045Z,101904.94
2022-10-12T23:14:30.490Z,101896.19
2022-10-12T23:19:54.831Z,101896.22
2022-10-12T23:25:18.114Z,101881.41
2022-10-12T23:30:41.111Z,101875.38
2022-10-12T23:36:07.382Z,101854.50
2022-10-12T23:41:30.450Z,101834.34
2022-10-12T23:46:53.500Z,101836.09
2022-10-12T23:52:18.189Z,101826.50
2022-10-12T23:57:46.984Z,101817.81
